Latest Weather Observations for Perisher Valley

IDN60901

Issued at 10:55 pm EDT Friday 24 October 2014 (issued every 10 minutes, with the page automatically refreshed every 10 minutes)

About weather observations | Map of Canberra area stations | Latest observations for Canberra area | Other Formats
Station Details ID: 071075 Name: PERISHER VALLEY AWS Lat: -36.41 Lon: 148.41 Height: 1738.0 m
Data from the previous 72 hours. | See also: Recent months at Perisher Valley
Date/Time
EDT
Tmp

°C
App
Tmp
°C
Dew
Point
°C
Rel
Hum
%
Delta-T

°C
Wind Press
QNH
hPa
Press
MSL
hPa
Rain
since
9 am
mm
Dir
 
Spd
km/h
Gust
km/h
Spd
kts
Gust
kts
24/10:30pm 12.7 7.7 6.3 65 3.4 W 22 33 12 18 - - 0.0
24/10:00pm 13.1 7.6 6.0 62 3.7 W 24 35 13 19 - - 0.0
24/09:30pm 12.9 9.9 6.0 63 3.6 W 11 24 6 13 - - 0.0
24/09:00pm 13.6 10.5 5.7 59 4.1 WNW 11 26 6 14 - - 0.0
24/08:30pm 14.0 9.0 6.6 61 3.9 W 22 33 12 18 - - 0.0
24/08:00pm 13.9 11.4 8.1 68 3.2 W 11 20 6 11 - - 0.0
24/07:30pm 14.5 11.5 7.8 64 3.7 W 13 28 7 15 - - 0.0
24/07:00pm 14.8 9.9 8.5 66 3.5 W 24 37 13 20 - - 0.0
24/06:30pm 14.9 12.2 8.8 67 3.4 W 13 28 7 15 - - 0.0
24/06:00pm 15.0 11.9 8.9 67 3.4 WNW 15 28 8 15 - - 0.0
24/05:30pm 14.9 14.0 9.3 69 3.1 W 4 15 2 8 - - 0.0
24/05:00pm 15.0 14.5 9.4 69 3.2 SW 2 11 1 6 - - 0.0
24/04:30pm 15.3 13.0 9.0 66 3.5 W 11 32 6 17 - - 0.0
24/04:00pm 15.7 10.9 8.7 63 3.9 W 24 41 13 22 - - 0.0
24/03:30pm 16.8 13.7 8.8 59 4.5 W 15 33 8 18 - - 0.0
24/03:00pm 17.3 10.9 6.8 50 5.7 W 30 57 16 31 - - 0.0
24/02:30pm 17.5 11.7 8.1 54 5.2 W 28 63 15 34 - - 0.0
24/02:03pm 17.5 11.5 7.0 50 5.7 W 28 57 15 31 - - 0.0
24/02:00pm 17.8 13.0 8.9 56 5.0 W 24 50 13 27 - - 0.0
24/01:30pm 16.8 9.6 7.7 55 5.0 W 35 59 19 32 - - 0.0
24/01:09pm 16.7 10.8 7.6 55 5.0 W 28 50 15 27 - - 0.0
24/01:00pm 16.4 12.1 7.9 57 4.7 W 20 43 11 23 - - 0.0
24/12:30pm 15.3 10.9 7.3 59 4.3 W 20 46 11 25 - - 0.0
24/12:00pm 15.2 11.7 7.3 59 4.3 W 15 46 8 25 - - 0.0
24/11:30am 15.7 12.9 7.0 56 4.7 W 11 28 6 15 - - 0.0
24/11:00am 15.2 12.7 6.5 56 4.6 W 9 41 5 22 - - 0.0
24/10:30am 15.4 12.4 6.2 54 4.9 WNW 11 35 6 19 - - 0.0
24/10:00am 16.1 12.8 6.3 52 5.2 WNW 13 28 7 15 - - 0.0
24/09:30am 14.6 12.0 5.9 56 4.6 NW 9 24 5 13 - - 0.0
24/09:00am 14.0 11.8 5.4 56 4.5 NW 6 19 3 10 - - 0.0
24/08:30am 14.5 11.3 5.0 53 4.9 NNW 11 28 6 15 - - 0.0
24/08:00am 13.8 10.9 4.9 55 4.6 NNW 9 33 5 18 - - 0.0
24/07:30am 13.1 10.3 5.0 58 4.1 WNW 9 26 5 14 - - 0.0
24/07:00am 13.4 10.9 4.6 55 4.5 NW 7 22 4 12 - - 0.0
24/06:30am 12.3 9.9 4.3 58 4.0 W 6 24 3 13 - - 0.0
24/06:00am 12.6 10.2 4.3 57 4.2 NW 6 26 3 14 - - 0.0
24/05:30am 12.6 10.3 4.6 58 4.0 WNW 6 19 3 10 - - 0.0
24/05:00am 12.5 10.5 4.5 58 4.0 SW 4 20 2 11 - - 0.0
24/04:30am 12.2 9.8 4.2 58 4.0 WSW 6 17 3 9 - - 0.0
24/04:00am 12.2 10.2 4.2 58 4.0 WSW 4 15 2 8 - - 0.0
24/03:30am 12.1 9.7 4.3 59 3.9 NW 6 19 3 10 - - 0.0
24/03:00am 12.0 9.7 5.0 62 3.6 NW 6 17 3 9 - - 0.0
24/02:30am 11.0 9.6 5.3 68 2.9 W 2 9 1 5 - - 0.0
24/02:00am 9.0 6.6 4.2 72 2.3 WSW 6 9 3 5 - - 0.0
24/01:30am 9.7 8.2 5.1 73 2.3 N 2 7 1 4 - - 0.0
24/01:00am 9.1 7.1 4.5 73 2.3 NNW 4 13 2 7 - - 0.0
24/12:30am 9.1 7.1 4.5 73 2.3 NNW 4 7 2 4 - - 0.0
24/12:00am 9.1 7.5 4.7 74 2.2 NE 2 11 1 6 - - 0.0
 
Date/Time
EDT
Tmp

°C
App
Tmp
°C
Dew
Point
°C
Rel
Hum
%
Delta-T

°C
Wind Press
QNH
hPa
Press
MSL
hPa
Rain
since
9 am
mm
Dir
 
Spd
km/h
Gust
km/h
Spd
kts
Gust
kts
23/11:30pm 9.5 7.1 5.1 74 2.2 N 7 17 4 9 - - 0.0
23/11:00pm 9.6 6.5 5.6 76 2.0 NNE 11 22 6 12 - - 0.0
23/10:30pm 9.0 6.0 5.9 81 1.6 NNE 11 20 6 11 - - 0.0
23/10:00pm 9.1 6.1 6.2 82 1.5 NNE 11 24 6 13 - - 0.0
23/09:30pm 8.8 6.3 6.6 86 1.1 NNE 9 26 5 14 - - 0.0
23/09:00pm 8.7 6.7 7.3 91 0.7 NNE 7 17 4 9 - - 0.0
23/08:30pm 9.0 7.1 7.5 90 0.8 NNE 7 15 4 8 - - 0.0
23/08:00pm 9.3 6.6 7.4 88 1.0 NE 11 20 6 11 - - 0.0
23/07:30pm 9.5 7.6 7.4 87 1.1 ENE 7 15 4 8 - - 0.0
23/07:00pm 10.6 8.8 8.0 84 1.4 ENE 7 13 4 7 - - 0.0
23/06:30pm 10.5 8.3 7.7 83 1.5 SW 9 30 5 16 - - 0.0
23/06:00pm 11.8 7.9 8.6 81 1.7 E 19 30 10 16 - - 0.0
23/05:30pm 13.1 10.3 8.4 73 2.6 E 13 24 7 13 - - 0.0
23/05:00pm 16.2 13.4 6.9 54 5.0 E 11 20 6 11 - - 0.0
23/04:30pm 19.9 17.2 3.6 34 8.5 NW 7 20 4 11 - - 0.0
23/04:00pm 19.2 15.8 2.1 32 8.6 N 9 19 5 10 - - 0.0
23/03:30pm 20.3 17.5 3.1 32 8.9 WNW 7 17 4 9 - - 0.0
23/03:00pm 20.1 18.3 7.8 45 6.9 E 7 17 4 9 - - 0.0
23/02:30pm 20.0 16.9 3.7 34 8.5 WSW 9 24 5 13 - - 0.0
23/02:00pm 20.8 17.3 3.5 32 9.0 SW 11 24 6 13 - - 0.0
23/01:30pm 19.4 15.5 3.2 34 8.3 W 13 30 7 16 - - 0.0
23/01:00pm 20.2 17.1 3.4 33 8.7 SW 9 20 5 11 - - 0.0
23/12:30pm 17.7 14.2 3.6 39 7.2 W 11 24 6 13 - - 0.0
23/12:00pm 18.1 14.8 4.7 41 7.0 W 11 28 6 15 - - 0.0
23/11:30am 18.1 14.5 3.2 37 7.6 WNW 11 24 6 13 - - 0.0
23/11:00am 17.6 13.5 2.0 35 7.7 WSW 13 26 7 14 - - 0.0
23/10:30am 17.8 13.3 0.0 30 8.5 WSW 13 22 7 12 - - 0.0
23/10:00am 16.9 13.5 2.1 37 7.3 WSW 9 24 5 13 - - 0.0
23/09:30am 15.7 11.8 3.5 44 6.2 W 13 22 7 12 - - 0.0
23/09:00am 15.8 12.3 3.3 43 6.3 W 11 20 6 11 - - 0.0
23/08:30am 14.7 10.6 2.3 43 6.1 W 13 22 7 12 - - 0.0
23/08:00am 14.4 10.8 3.2 47 5.6 WNW 11 20 6 11 - - 0.0
23/07:30am 11.3 9.8 2.9 56 4.1 CALM 0 2 0 1 - - 0.0
23/07:00am 10.5 9.0 2.8 59 3.7 CALM 0 2 0 1 - - 0.0
23/06:30am 10.6 8.0 0.9 51 4.5 SW 4 11 2 6 - - 0.0
23/06:00am 11.7 7.8 1.1 48 4.9 W 11 15 6 8 - - 0.0
23/05:30am 11.5 7.7 1.7 51 4.6 W 11 19 6 10 - - 0.0
23/05:00am 11.4 7.3 2.2 53 4.4 W 13 19 7 10 - - 0.0
23/04:30am 10.8 8.0 6.9 77 2.0 WSW 11 20 6 11 - - 0.0
23/04:00am 11.1 6.8 6.8 75 2.3 W 19 30 10 16 - - 0.0
23/03:30am 11.4 7.8 5.1 65 3.2 W 13 26 7 14 - - 0.0
23/03:00am 6.7 4.9 3.5 80 1.5 SW 2 4 1 2 - - 0.0
23/02:30am 6.8 5.1 3.8 81 1.4 SW 2 6 1 3 - - 0.0
23/02:00am 6.9 5.2 4.0 82 1.4 SW 2 6 1 3 - - 0.0
23/01:30am 7.2 5.6 4.3 82 1.4 SW 2 6 1 3 - - 0.0
23/01:00am 7.3 6.2 5.0 85 1.1 CALM 0 2 0 1 - - 0.0
23/12:30am 7.0 5.5 4.8 86 1.1 SW 2 6 1 3 - - 0.0
23/12:00am 6.3 5.0 4.1 86 1.0 CALM 0 0 0 0 - - 0.0
 
Date/Time
EDT
Tmp

°C
App
Tmp
°C
Dew
Point
°C
Rel
Hum
%
Delta-T

°C
Wind Press
QNH
hPa
Press
MSL
hPa
Rain
since
9 am
mm
Dir
 
Spd
km/h
Gust
km/h
Spd
kts
Gust
kts
22/11:30pm 6.1 4.3 3.6 84 1.2 SW 2 4 1 2 - - 0.0
22/11:00pm 6.5 4.8 3.8 83 1.3 SW 2 6 1 3 - - 0.0
22/10:30pm 6.4 3.9 3.6 82 1.3 SW 6 7 3 4 - - 0.0
22/10:00pm 6.8 5.2 4.3 84 1.2 SSW 2 4 1 2 - - 0.0
22/09:30pm 7.2 6.0 4.5 83 1.3 CALM 0 2 0 1 - - 0.0
22/09:00pm 9.1 7.3 5.3 77 1.9 W 4 9 2 5 - - 0.0
22/08:30pm 10.5 8.3 6.3 75 2.2 WSW 7 13 4 7 - - 0.0
22/08:00pm 10.9 8.2 7.2 78 2.0 W 11 20 6 11 - - 0.0
22/07:30pm 11.8 9.8 7.3 74 2.4 WSW 7 15 4 8 - - 0.0
22/07:00pm 12.6 10.3 7.5 71 2.7 W 9 17 5 9 - - 0.0
22/06:30pm 14.5 12.7 7.8 64 3.7 WNW 7 15 4 8 - - 0.0
22/06:00pm 16.3 14.8 6.7 53 5.2 WSW 4 11 2 6 - - 0.0
22/05:30pm 16.1 13.5 6.3 52 5.2 WSW 9 19 5 10 - - 0.0
22/05:00pm 16.7 14.3 7.1 53 5.2 W 9 22 5 12 - - 0.0
22/04:30pm 16.8 13.8 6.0 49 5.8 WNW 11 20 6 11 - - 0.0
22/04:00pm 17.0 13.7 4.3 43 6.6 W 11 20 6 11 - - 0.0
22/03:30pm 16.5 12.9 4.9 46 6.1 W 13 32 7 17 - - 0.0
22/03:00pm 16.5 12.3 3.9 43 6.4 WSW 15 26 8 14 - - 0.0
22/02:30pm 15.8 11.3 4.2 46 5.9 W 17 35 9 19 - - 0.0
22/02:00pm 15.3 10.5 4.4 48 5.6 W 19 37 10 20 - - 0.0
22/01:30pm 15.0 10.6 5.0 51 5.2 WSW 17 33 9 18 - - 0.0
22/01:00pm 14.5 9.7 5.8 56 4.6 WSW 20 41 11 22 - - 0.0
22/12:30pm 14.4 9.5 5.2 54 4.8 W 20 39 11 21 - - 0.0
22/12:00pm 14.7 9.9 4.4 50 5.3 W 19 37 10 20 - - 0.0
22/11:30am 14.1 9.3 4.9 54 4.7 WSW 19 39 10 21 - - 0.0
22/11:00am 14.1 9.1 3.8 50 5.2 W 19 35 10 19 - - 0.0
22/10:30am 13.7 8.4 2.9 48 5.3 W 20 37 11 20 - - 0.0
22/10:00am 13.0 8.1 2.3 48 5.2 W 17 39 9 21 - - 0.0
22/09:30am 12.9 8.6 3.3 52 4.7 W 15 35 8 19 - - 0.0
22/09:00am 13.2 8.8 0.3 41 6.0 WSW 13 32 7 17 - - 0.0
22/08:30am 12.4 8.0 0.5 44 5.5 WSW 13 28 7 15 - - 0.0
22/08:00am 11.2 7.0 -1.2 42 5.5 W 11 20 6 11 - - 0.0
22/07:30am 10.6 6.1 -7.1 28 6.8 WSW 9 19 5 10 - - 0.0
22/07:13am 9.4 5.1 -4.5 37 5.6 WSW 9 17 5 9 - - 0.0
22/07:00am 4.4 1.5 -1.0 68 2.2 SW 4 15 2 8 - - 0.0
22/06:30am 2.3 -0.4 -2.6 70 1.9 WSW 2 9 1 5 - - 0.0
22/06:00am 2.5 -1.0 -3.0 67 2.1 SW 6 11 3 6 - - 0.0
22/05:30am 1.9 -1.2 -2.6 72 1.7 WSW 4 11 2 6 - - 0.0
22/05:00am 2.4 0.4 0.0 84 1.0 CALM 0 0 0 0 - - 0.0
22/04:30am 3.0 0.9 1.5 90 0.7 WSW 2 4 1 2 - - 0.0
22/04:00am 3.9 2.3 2.7 92 0.5 CALM 0 6 0 3 - - 0.0
22/03:30am 2.3 0.5 1.0 91 0.6 CALM 0 4 0 2 - - 0.0
22/03:00am 2.3 0.1 0.8 90 0.6 SW 2 6 1 3 - - 0.0
22/02:30am 2.7 0.6 1.7 93 0.4 SW 2 4 1 2 - - 0.0
22/02:00am 2.8 1.1 1.9 94 0.4 CALM 0 4 0 2 - - 0.0
22/01:30am 3.0 0.9 2.0 93 0.4 SW 2 7 1 4 - - 0.0
22/01:00am 3.5 1.9 2.6 94 0.4 CALM 0 2 0 1 - - 0.0
22/12:30am 2.9 1.2 2.0 94 0.4 CALM 0 4 0 2 - - 0.0
22/12:00am 2.6 0.8 1.4 92 0.5 CALM 0 0 0 0 - - 0.0
 
Date/Time
EDT
Tmp

°C
App
Tmp
°C
Dew
Point
°C
Rel
Hum
%
Delta-T

°C
Wind Press
QNH
hPa
Press
MSL
hPa
Rain
since
9 am
mm
Dir
 
Spd
km/h
Gust
km/h
Spd
kts
Gust
kts
21/11:30pm 3.6 1.6 2.4 92 0.5 WSW 2 4 1 2 - - 0.0
21/11:00pm 4.1 2.2 2.8 91 0.6 SW 2 7 1 4 - - 0.0

Latest Capital City Observations: Canberra | Sydney | Melbourne | Brisbane | Adelaide | Perth | Hobart | Darwin

Other Formats:

Comma delimited format used in spreadsheet applications
http://www.bom.gov.au/fwo/IDN60903/IDN60903.94915.axf

JavaScript Object Notation format (JSON) in row-major order
http://www.bom.gov.au/fwo/IDN60903/IDN60903.94915.json